createdAt,value
2023-09-08T00:01:05.298Z,16.39
2023-09-08T00:03:34.455Z,16.85
2023-09-08T00:06:02.564Z,16.83
2023-09-08T00:08:30.279Z,16.80
2023-09-08T00:10:58.678Z,16.92
2023-09-08T00:13:26.345Z,16.99
2023-09-08T00:15:54.086Z,16.98
2023-09-08T00:18:21.825Z,16.99
2023-09-08T00:20:51.039Z,16.98
2023-09-08T00:23:18.713Z,17.01
2023-09-08T00:25:46.477Z,16.81
2023-09-08T00:28:14.337Z,16.83
2023-09-08T00:30:42.042Z,16.60
2023-09-08T00:33:10.104Z,16.89
2023-09-08T00:35:38.053Z,16.80
2023-09-08T00:38:07.269Z,16.91
2023-09-08T00:40:34.983Z,16.88
2023-09-08T00:43:02.730Z,16.27
2023-09-08T00:45:32.133Z,16.91
2023-09-08T00:48:00.635Z,16.82
2023-09-08T00:50:28.515Z,16.75
2023-09-08T00:52:56.345Z,16.77
2023-09-08T00:55:25.567Z,16.73
2023-09-08T00:57:53.360Z,16.72
2023-09-08T01:00:21.280Z,16.69
2023-09-08T01:02:49.240Z,16.79
2023-09-08T01:05:17.525Z,16.79
2023-09-08T01:07:46.825Z,16.80
2023-09-08T01:10:15.533Z,16.80
2023-09-08T01:12:44.639Z,16.82
2023-09-08T01:15:13.180Z,16.86
2023-09-08T01:17:41.442Z,16.81
2023-09-08T01:20:18.218Z,16.75
2023-09-08T01:23:03.692Z,16.88
2023-09-08T01:25:34.930Z,16.88
2023-09-08T01:28:04.964Z,16.70
2023-09-08T01:30:34.115Z,16.88
2023-09-08T01:33:02.431Z,16.91
2023-09-08T01:35:30.515Z,16.97
2023-09-08T01:37:58.364Z,16.94
2023-09-08T01:40:26.141Z,16.50
2023-09-08T01:42:55.436Z,16.92
2023-09-08T01:45:23.253Z,16.80
2023-09-08T01:47:50.998Z,16.96
2023-09-08T01:50:22.760Z,16.94
2023-09-08T01:52:50.713Z,16.95
2023-09-08T01:55:18.477Z,16.28
2023-09-08T01:57:47.702Z,16.94
2023-09-08T02:00:17.493Z,16.94
2023-09-08T02:02:45.304Z,16.93
2023-09-08T02:05:13.133Z,16.92
2023-09-08T02:07:40.900Z,16.91
2023-09-08T02:10:09.162Z,16.92
2023-09-08T02:12:36.852Z,16.94
2023-09-08T02:15:05.301Z,16.87
2023-09-08T02:17:34.511Z,16.86
2023-09-08T02:20:02.304Z,16.83
2023-09-08T02:22:28.986Z,16.59
2023-09-08T02:24:59.244Z,16.67
2023-09-08T02:27:26.920Z,16.69
2023-09-08T02:29:54.720Z,16.68
2023-09-08T02:32:22.496Z,16.62
2023-09-08T02:34:51.583Z,16.64
2023-09-08T02:37:20.161Z,16.36
2023-09-08T02:39:47.916Z,16.67
2023-09-08T02:42:15.630Z,16.66
2023-09-08T02:44:44.158Z,16.69
2023-09-08T02:47:12.330Z,16.70
2023-09-08T02:49:40.083Z,16.72
2023-09-08T02:52:09.207Z,16.68
2023-09-08T02:54:37.033Z,16.48
2023-09-08T02:57:05.279Z,16.62
2023-09-08T02:59:33.086Z,16.47
2023-09-08T03:02:02.273Z,16.35
2023-09-08T03:04:30.150Z,16.53
2023-09-08T03:06:58.012Z,16.56
2023-09-08T03:09:27.149Z,16.57
2023-09-08T03:11:54.819Z,16.57
2023-09-08T03:14:22.482Z,16.59
2023-09-08T03:16:50.195Z,16.62
2023-09-08T03:19:17.921Z,16.45
2023-09-08T03:21:45.665Z,16.48
2023-09-08T03:24:13.329Z,16.46
2023-09-08T03:26:42.383Z,16.51
2023-09-08T03:29:10.287Z,16.46
2023-09-08T03:31:38.147Z,16.39
2023-09-08T03:34:06.165Z,16.02
2023-09-08T03:36:36.899Z,16.43
2023-09-08T03:39:04.812Z,16.43
2023-09-08T03:41:32.553Z,16.47
2023-09-08T03:44:01.764Z,16.43
2023-09-08T03:46:29.557Z,16.43
2023-09-08T03:49:02.396Z,16.45
2023-09-08T03:51:30.163Z,16.38
2023-09-08T03:53:58.163Z,16.41
2023-09-08T03:56:26.103Z,16.44
2023-09-08T03:58:53.985Z,16.23
2023-09-08T04:01:23.106Z,16.30
2023-09-08T04:03:50.874Z,16.16
2023-09-08T04:06:18.626Z,16.40
2023-09-08T04:08:46.446Z,16.35
2023-09-08T04:11:14.194Z,16.34
2023-09-08T04:13:42.020Z,15.77
2023-09-08T04:16:10.579Z,15.63
2023-09-08T04:18:39.793Z,16.46
2023-09-08T04:21:08.807Z,16.41
2023-09-08T04:23:36.775Z,16.40
2023-09-08T04:26:04.893Z,16.35
2023-09-08T04:28:32.603Z,16.36
2023-09-08T04:31:00.432Z,16.41
2023-09-08T04:33:29.947Z,16.35
2023-09-08T04:35:59.112Z,15.98
2023-09-08T04:38:26.809Z,16.06
2023-09-08T04:40:54.607Z,16.33
2023-09-08T04:43:22.219Z,16.33
2023-09-08T04:45:49.956Z,16.25
2023-09-08T04:48:17.636Z,16.27
2023-09-08T04:50:45.328Z,16.30
2023-09-08T04:53:14.433Z,16.27
2023-09-08T04:55:42.282Z,16.27
2023-09-08T04:58:09.926Z,16.22
2023-09-08T05:00:39.874Z,16.24
2023-09-08T05:03:07.978Z,16.08
2023-09-08T05:05:35.754Z,16.27
2023-09-08T05:08:03.570Z,16.28
2023-09-08T05:10:32.628Z,16.30
2023-09-08T05:13:00.426Z,14.99
2023-09-08T05:15:28.138Z,16.33
2023-09-08T05:17:55.892Z,16.31
2023-09-08T05:20:23.659Z,16.29
2023-09-08T05:22:51.397Z,16.27
2023-09-08T05:25:19.408Z,16.22
2023-09-08T05:27:50.149Z,16.23
2023-09-08T05:30:17.895Z,16.26
2023-09-08T05:32:45.671Z,16.25
2023-09-08T05:35:13.457Z,16.27
2023-09-08T05:37:41.163Z,16.33
2023-09-08T05:40:09.923Z,16.30
2023-09-08T05:42:37.550Z,16.29
2023-09-08T05:45:07.888Z,16.32
2023-09-08T05:47:37.058Z,16.30
2023-09-08T05:50:05.025Z,16.36
2023-09-08T05:52:34.332Z,16.55
2023-09-08T05:55:04.090Z,16.49
2023-09-08T05:57:32.013Z,16.67
2023-09-08T05:59:59.692Z,16.77
2023-09-08T06:02:28.857Z,16.87
2023-09-08T06:04:57.586Z,16.92
2023-09-08T06:07:25.349Z,17.02
2023-09-08T06:09:53.155Z,17.11
2023-09-08T06:12:20.952Z,17.16
2023-09-08T06:14:48.944Z,17.38
2023-09-08T06:17:16.784Z,17.58
2023-09-08T06:19:45.955Z,17.79
2023-09-08T06:22:13.665Z,17.96
2023-09-08T06:24:41.507Z,18.16
2023-09-08T06:27:09.334Z,18.33
2023-09-08T06:29:37.148Z,18.51
2023-09-08T06:32:05.420Z,18.63
2023-09-08T06:34:33.250Z,18.81
2023-09-08T06:37:02.393Z,19.02
2023-09-08T06:39:30.358Z,19.16
2023-09-08T06:41:58.025Z,19.37
2023-09-08T06:44:25.797Z,19.53
2023-09-08T06:46:53.635Z,19.72
2023-09-08T06:49:21.336Z,19.91
2023-09-08T06:51:50.081Z,20.04
2023-09-08T06:54:19.840Z,20.17
2023-09-08T06:56:47.588Z,20.16
2023-09-08T06:59:15.281Z,19.83
2023-09-08T07:01:43.253Z,20.66
2023-09-08T07:04:12.086Z,20.71
2023-09-08T07:06:42.960Z,20.01
2023-09-08T07:09:11.851Z,20.67
2023-09-08T07:11:41.179Z,21.00
2023-09-08T07:14:09.326Z,21.16
2023-09-08T07:16:37.315Z,20.86
2023-09-08T07:19:05.790Z,21.57
2023-09-08T07:21:33.563Z,21.81
2023-09-08T07:24:01.749Z,22.00
2023-09-08T07:26:29.547Z,22.08
2023-09-08T07:28:58.655Z,22.25
2023-09-08T07:31:26.475Z,22.29
2023-09-08T07:33:54.464Z,22.27
2023-09-08T07:36:22.235Z,22.40
2023-09-08T07:38:50.052Z,22.62
2023-09-08T07:41:17.822Z,22.59
2023-09-08T07:43:46.864Z,22.84
2023-09-08T07:46:16.372Z,23.16
2023-09-08T07:48:44.179Z,23.10
2023-09-08T07:51:12.021Z,23.45
2023-09-08T07:53:39.801Z,23.63
2023-09-08T07:56:07.675Z,23.83
2023-09-08T07:58:35.748Z,24.11
2023-09-08T08:01:03.769Z,23.82
2023-09-08T08:03:33.027Z,24.09
2023-09-08T08:06:00.784Z,24.01
2023-09-08T08:08:28.801Z,24.23
2023-09-08T08:10:56.756Z,24.61
2023-09-08T08:13:24.475Z,24.83
2023-09-08T08:15:52.210Z,25.02
2023-09-08T08:18:20.153Z,24.77
2023-09-08T08:20:49.602Z,25.00
2023-09-08T08:23:17.394Z,25.22
2023-09-08T08:25:45.159Z,25.33
2023-09-08T08:28:12.929Z,25.65
2023-09-08T08:30:40.588Z,25.56
2023-09-08T08:33:08.512Z,25.87
2023-09-08T08:35:36.371Z,25.99
2023-09-08T08:38:05.849Z,26.17
2023-09-08T08:40:35.175Z,26.30
2023-09-08T08:43:03.078Z,26.61
2023-09-08T08:45:34.664Z,26.82
2023-09-08T08:48:03.833Z,26.79
2023-09-08T08:50:33.422Z,27.09
2023-09-08T08:53:01.211Z,27.13
2023-09-08T08:55:32.230Z,27.29
2023-09-08T08:58:05.120Z,27.64
2023-09-08T09:00:35.890Z,27.80
2023-09-08T09:03:15.031Z,27.00
2023-09-08T09:05:47.595Z,27.72
2023-09-08T09:08:17.312Z,27.59
2023-09-08T09:10:46.444Z,28.04
2023-09-08T09:13:14.201Z,27.79
2023-09-08T09:15:42.004Z,27.84
2023-09-08T09:18:10.397Z,28.19
2023-09-08T09:20:38.235Z,28.56
2023-09-08T09:23:06.279Z,28.89
2023-09-08T09:25:34.414Z,28.80
2023-09-08T09:28:05.071Z,28.79
2023-09-08T09:30:49.387Z,27.79
2023-09-08T09:33:17.957Z,28.53
2023-09-08T09:35:48.525Z,28.76
2023-09-08T09:38:16.638Z,29.22
2023-09-08T09:40:44.473Z,29.19
2023-09-08T09:43:14.211Z,29.25
2023-09-08T09:45:43.097Z,29.09
2023-09-08T09:48:12.442Z,29.61
2023-09-08T09:50:44.226Z,29.74
2023-09-08T09:53:13.885Z,29.30
2023-09-08T09:55:42.705Z,29.69
2023-09-08T09:58:11.933Z,29.60
2023-09-08T10:00:42.294Z,29.79
2023-09-08T10:03:10.708Z,29.93
2023-09-08T10:05:39.212Z,29.69
2023-09-08T10:08:07.619Z,29.61
2023-09-08T10:10:36.522Z,29.87
2023-09-08T10:13:07.606Z,30.03
2023-09-08T10:15:35.932Z,29.81
2023-09-08T10:18:06.888Z,29.89
2023-09-08T10:20:36.731Z,29.90
2023-09-08T10:23:10.222Z,29.75
2023-09-08T10:25:44.643Z,29.82
2023-09-08T10:28:12.563Z,29.97
2023-09-08T10:30:41.114Z,30.03
2023-09-08T10:33:11.366Z,30.38
2023-09-08T10:35:39.534Z,29.92
2023-09-08T10:38:27.252Z,30.21
2023-09-08T10:40:55.632Z,30.04
2023-09-08T10:43:23.355Z,30.33
2023-09-08T10:45:52.499Z,30.22
2023-09-08T10:48:21.687Z,30.27
2023-09-08T10:50:49.581Z,30.32
2023-09-08T10:53:19.036Z,30.18
2023-09-08T10:56:06.442Z,30.47
2023-09-08T10:58:39.931Z,30.76
2023-09-08T11:01:08.756Z,30.63
2023-09-08T11:03:50.381Z,31.00
2023-09-08T11:06:20.085Z,30.64
2023-09-08T11:08:48.539Z,31.06
2023-09-08T11:11:18.631Z,31.43
2023-09-08T11:13:47.916Z,31.48
2023-09-08T11:16:16.213Z,31.24
2023-09-08T11:18:44.599Z,30.93
2023-09-08T11:21:13.808Z,31.27
2023-09-08T11:23:41.680Z,31.11
2023-09-08T11:26:10.216Z,30.97
2023-09-08T11:28:39.257Z,30.65
2023-09-08T11:31:07.371Z,31.02
2023-09-08T11:33:40.480Z,31.42
2023-09-08T11:36:18.068Z,31.57
2023-09-08T11:38:46.623Z,31.64
2023-09-08T11:41:14.792Z,31.92
2023-09-08T11:43:42.771Z,31.50
2023-09-08T11:46:11.907Z,31.36
2023-09-08T11:48:40.872Z,31.61
2023-09-08T11:51:09.190Z,30.96
2023-09-08T11:53:39.470Z,31.19
2023-09-08T11:56:07.919Z,31.77
2023-09-08T11:58:36.210Z,30.91
2023-09-08T12:01:05.920Z,31.67
2023-09-08T12:03:33.790Z,32.08
2023-09-08T12:06:03.571Z,32.24
2023-09-08T12:08:31.478Z,32.33
2023-09-08T12:11:00.887Z,31.88
2023-09-08T12:13:28.637Z,31.24
2023-09-08T12:15:56.348Z,31.23
2023-09-08T12:18:39.826Z,31.42
2023-09-08T12:21:07.853Z,31.67
2023-09-08T12:23:35.539Z,31.43
2023-09-08T12:26:04.626Z,32.07
2023-09-08T12:28:33.064Z,32.47
2023-09-08T12:31:01.004Z,31.61
2023-09-08T12:33:29.150Z,31.53
2023-09-08T12:35:56.816Z,32.66
2023-09-08T12:38:24.709Z,31.74
2023-09-08T12:40:52.405Z,32.51
2023-09-08T12:43:27.940Z,32.85
2023-09-08T12:45:57.484Z,32.88
2023-09-08T12:48:25.634Z,32.89
2023-09-08T12:50:53.613Z,33.49
2023-09-08T12:53:21.745Z,33.64
2023-09-08T12:55:49.917Z,33.52
2023-09-08T12:58:18.025Z,33.60
2023-09-08T13:00:47.443Z,33.66
2023-09-08T13:03:15.197Z,33.23
2023-09-08T13:05:43.272Z,33.31
2023-09-08T13:08:12.315Z,33.01
2023-09-08T13:10:40.206Z,33.03
2023-09-08T13:13:08.127Z,33.65
2023-09-08T13:15:35.891Z,33.73
2023-09-08T13:18:05.370Z,33.17
2023-09-08T13:20:33.175Z,33.26
2023-09-08T13:23:01.005Z,33.14
2023-09-08T13:25:29.010Z,33.67
2023-09-08T13:27:56.816Z,32.96
2023-09-08T13:30:27.708Z,33.55
2023-09-08T13:32:56.993Z,33.45
2023-09-08T13:35:26.198Z,33.60
2023-09-08T13:37:53.925Z,33.72
2023-09-08T13:40:22.030Z,33.28
2023-09-08T13:42:50.151Z,33.39
2023-09-08T13:45:18.092Z,33.01
2023-09-08T13:47:46.301Z,33.66
2023-09-08T13:50:14.686Z,33.62
2023-09-08T13:52:47.153Z,33.73
2023-09-08T13:57:48.781Z,33.30
2023-09-08T14:00:18.366Z,32.86
2023-09-08T14:02:51.678Z,32.62
2023-09-08T14:05:27.656Z,33.20
2023-09-08T14:08:07.986Z,33.26
2023-09-08T14:10:53.136Z,33.26
2023-09-08T14:13:26.355Z,33.70
2023-09-08T14:15:54.179Z,33.13
2023-09-08T14:18:22.027Z,33.67
2023-09-08T14:20:49.747Z,33.41
2023-09-08T14:23:18.896Z,33.73
2023-09-08T14:25:46.696Z,33.40
2023-09-08T14:28:14.477Z,33.53
2023-09-08T14:30:42.645Z,32.83
2023-09-08T14:33:10.493Z,32.81
2023-09-08T14:35:43.059Z,32.74
2023-09-08T14:38:11.053Z,32.86
2023-09-08T14:40:40.158Z,32.80
2023-09-08T14:43:07.882Z,33.35
2023-09-08T14:45:35.569Z,33.26
2023-09-08T14:48:03.490Z,32.90
2023-09-08T14:50:31.227Z,33.06
2023-09-08T14:52:58.940Z,32.45
2023-09-08T14:55:26.720Z,32.40
2023-09-08T14:57:56.472Z,32.68
2023-09-08T15:00:24.276Z,31.70
2023-09-08T15:02:52.225Z,32.20
2023-09-08T15:05:20.296Z,31.61
2023-09-08T15:07:48.410Z,31.11
2023-09-08T15:10:16.237Z,31.66
2023-09-08T15:12:44.417Z,31.50
2023-09-08T15:15:13.644Z,31.61
2023-09-08T15:17:41.461Z,31.17
2023-09-08T15:20:10.430Z,30.87
2023-09-08T15:22:38.309Z,31.27
2023-09-08T15:25:06.702Z,30.62
2023-09-08T15:27:34.492Z,31.34
2023-09-08T15:30:02.379Z,30.98
2023-09-08T15:32:31.537Z,31.33
2023-09-08T15:34:59.356Z,30.46
2023-09-08T15:37:27.140Z,30.91
2023-09-08T15:39:54.866Z,30.60
2023-09-08T15:42:22.837Z,30.56
2023-09-08T15:44:50.574Z,30.75
2023-09-08T15:47:20.135Z,30.71
2023-09-08T15:49:49.320Z,30.82
2023-09-08T15:52:17.304Z,30.73
2023-09-08T15:54:45.236Z,30.56
2023-09-08T15:57:13.178Z,30.61
2023-09-08T15:59:41.223Z,30.66
2023-09-08T16:02:09.071Z,30.09
2023-09-08T16:04:36.899Z,30.16
2023-09-08T16:07:06.507Z,29.99
2023-09-08T16:09:34.236Z,29.98
2023-09-08T16:12:02.006Z,29.27
2023-09-08T16:14:29.967Z,30.04
2023-09-08T16:16:57.707Z,30.03
2023-09-08T16:19:25.392Z,29.62
2023-09-08T16:21:53.183Z,29.75
2023-09-08T16:24:22.259Z,29.43
2023-09-08T16:26:50.106Z,29.56
2023-09-08T16:29:18.103Z,28.98
2023-09-08T16:31:45.854Z,29.09
2023-09-08T16:34:13.516Z,29.18
2023-09-08T16:36:41.208Z,29.00
2023-09-08T16:39:08.920Z,28.92
2023-09-08T16:41:38.025Z,28.85
2023-09-08T16:44:06.020Z,28.78
2023-09-08T16:46:33.976Z,28.64
2023-09-08T16:49:01.690Z,28.52
2023-09-08T16:51:30.429Z,27.59
2023-09-08T16:54:00.557Z,28.11
2023-09-08T16:56:28.578Z,28.09
2023-09-08T16:58:57.642Z,27.83
2023-09-08T17:01:25.384Z,27.68
2023-09-08T17:03:53.255Z,27.72
2023-09-08T17:06:21.302Z,27.44
2023-09-08T17:08:49.040Z,26.91
2023-09-08T17:11:19.471Z,27.24
2023-09-08T17:13:47.228Z,26.83
2023-09-08T17:16:16.323Z,26.80
2023-09-08T17:18:44.222Z,26.55
2023-09-08T17:21:12.037Z,26.38
2023-09-08T17:23:40.302Z,25.93
2023-09-08T17:26:09.216Z,26.15
2023-09-08T17:28:36.900Z,25.99
2023-09-08T17:31:05.843Z,25.73
2023-09-08T17:33:35.426Z,25.57
2023-09-08T17:36:04.726Z,25.02
2023-09-08T17:38:33.173Z,24.71
2023-09-08T17:41:02.721Z,24.42
2023-09-08T17:43:30.705Z,24.90
2023-09-08T17:45:59.796Z,24.72
2023-09-08T17:48:28.633Z,24.29
2023-09-08T17:50:57.866Z,24.21
2023-09-08T17:53:25.688Z,24.44
2023-09-08T17:55:53.388Z,24.32
2023-09-08T17:58:21.110Z,24.16
2023-09-08T18:00:49.421Z,24.06
2023-09-08T18:03:19.098Z,23.92
2023-09-08T18:05:48.348Z,23.69
2023-09-08T18:08:17.498Z,23.28
2023-09-08T18:10:47.278Z,23.46
2023-09-08T18:13:15.122Z,23.44
2023-09-08T18:15:43.028Z,23.32
2023-09-08T18:18:10.908Z,23.28
2023-09-08T18:20:38.712Z,23.11
2023-09-08T18:23:06.496Z,23.07
2023-09-08T18:25:35.672Z,22.72
2023-09-08T18:28:03.370Z,22.84
2023-09-08T18:30:31.093Z,22.63
2023-09-08T18:32:58.757Z,22.52
2023-09-08T18:35:27.526Z,22.64
2023-09-08T18:37:55.225Z,22.39
2023-09-08T18:40:22.930Z,22.34
2023-09-08T18:42:52.149Z,22.20
2023-09-08T18:45:20.117Z,21.64
2023-09-08T18:47:47.887Z,22.11
2023-09-08T18:50:15.606Z,22.04
2023-09-08T18:52:43.803Z,22.07
2023-09-08T18:55:11.530Z,21.56
2023-09-08T18:57:39.284Z,21.24
2023-09-08T19:00:10.006Z,21.79
2023-09-08T19:02:37.960Z,21.74
2023-09-08T19:05:07.103Z,21.65
2023-09-08T19:07:34.899Z,21.63
2023-09-08T19:10:04.218Z,21.55
2023-09-08T19:12:32.033Z,21.38
2023-09-08T19:14:59.820Z,21.30
2023-09-08T19:17:29.038Z,21.28
2023-09-08T19:19:56.779Z,21.29
2023-09-08T19:22:24.668Z,21.26
2023-09-08T19:24:53.776Z,21.15
2023-09-08T19:27:21.540Z,20.94
2023-09-08T19:29:50.996Z,20.93
2023-09-08T19:32:18.892Z,20.63
2023-09-08T19:34:47.946Z,20.73
2023-09-08T19:37:16.077Z,20.63
2023-09-08T19:39:44.009Z,20.56
2023-09-08T19:42:11.688Z,20.61
2023-09-08T19:44:39.467Z,20.54
2023-09-08T19:47:07.273Z,20.45
2023-09-08T19:49:35.068Z,20.46
2023-09-08T19:52:04.297Z,20.47
2023-09-08T19:54:31.967Z,19.82
2023-09-08T19:56:59.617Z,20.36
2023-09-08T19:59:27.317Z,20.26
2023-09-08T20:01:55.118Z,20.32
2023-09-08T20:04:22.931Z,20.17
2023-09-08T20:06:52.394Z,20.08
2023-09-08T20:09:21.538Z,19.98
2023-09-08T20:11:49.280Z,20.00
2023-09-08T20:14:17.019Z,19.71
2023-09-08T20:16:44.779Z,20.02
2023-09-08T20:19:12.769Z,19.92
2023-09-08T20:21:40.465Z,19.90
2023-09-08T20:24:08.704Z,19.82
2023-09-08T20:26:38.030Z,19.75
2023-09-08T20:29:05.851Z,19.72
2023-09-08T20:31:33.639Z,19.64
2023-09-08T20:34:01.336Z,19.70
2023-09-08T20:36:29.190Z,19.60
2023-09-08T20:38:56.876Z,19.60
2023-09-08T20:41:24.638Z,19.53
2023-09-08T20:43:53.671Z,19.46
2023-09-08T20:46:21.440Z,19.38
2023-09-08T20:48:49.116Z,19.40
2023-09-08T20:51:20.788Z,19.24
2023-09-08T20:53:48.426Z,19.25
2023-09-08T20:56:16.259Z,19.17
2023-09-08T20:58:44.878Z,19.12
2023-09-08T21:01:13.995Z,19.16
2023-09-08T21:03:41.717Z,19.13
2023-09-08T21:06:11.432Z,18.98
2023-09-08T21:08:39.185Z,18.97
2023-09-08T21:11:06.915Z,18.92
2023-09-08T21:13:35.518Z,18.92
2023-09-08T21:16:03.464Z,19.02
2023-09-08T21:18:32.578Z,18.91
2023-09-08T21:21:00.809Z,18.90
2023-09-08T21:23:29.174Z,18.91
2023-09-08T21:25:56.898Z,18.89
2023-09-08T21:28:24.648Z,18.88
2023-09-08T21:30:52.326Z,18.82
2023-09-08T21:33:21.730Z,18.88
2023-09-08T21:35:50.911Z,18.83
2023-09-08T21:38:17.616Z,18.55
2023-09-08T21:40:45.333Z,18.71
2023-09-08T21:43:12.995Z,18.72
2023-09-08T21:45:40.738Z,18.63
2023-09-08T21:48:09.048Z,18.59
2023-09-08T21:50:36.747Z,18.59
2023-09-08T21:53:05.937Z,18.54
2023-09-08T21:55:33.697Z,18.52
2023-09-08T21:58:01.458Z,18.51
2023-09-08T22:00:34.331Z,18.50
2023-09-08T22:03:02.288Z,18.41
2023-09-08T22:05:30.199Z,18.38
2023-09-08T22:07:57.919Z,18.39
2023-09-08T22:10:27.392Z,18.26
2023-09-08T22:12:55.113Z,18.38
2023-09-08T22:15:22.831Z,18.37
2023-09-08T22:17:51.575Z,18.35
2023-09-08T22:20:19.589Z,18.32
2023-09-08T22:22:47.418Z,18.35
2023-09-08T22:25:15.229Z,18.26
2023-09-08T22:27:44.334Z,18.08
2023-09-08T22:30:12.935Z,18.30
2023-09-08T22:32:40.840Z,18.21
2023-09-08T22:35:09.050Z,17.88
2023-09-08T22:37:36.915Z,18.05
2023-09-08T22:40:09.936Z,18.15
2023-09-08T22:42:37.947Z,18.19
2023-09-08T22:45:08.179Z,18.10
2023-09-08T22:47:35.937Z,18.08
2023-09-08T22:50:10.670Z,18.01
2023-09-08T22:52:41.110Z,18.06
2023-09-08T22:55:23.339Z,17.61
2023-09-08T22:57:52.478Z,17.85
2023-09-08T23:00:21.793Z,17.98
2023-09-08T23:02:49.620Z,17.94
2023-09-08T23:05:17.611Z,17.86
2023-09-08T23:07:45.562Z,17.73
2023-09-08T23:10:13.447Z,17.85
2023-09-08T23:12:41.195Z,17.81
2023-09-08T23:15:10.996Z,17.78
2023-09-08T23:17:40.516Z,17.59
2023-09-08T23:20:09.165Z,17.77
2023-09-08T23:22:37.732Z,17.80
2023-09-08T23:25:06.787Z,17.75
2023-09-08T23:27:34.633Z,17.74
2023-09-08T23:30:03.275Z,17.55
2023-09-08T23:32:31.025Z,17.61
2023-09-08T23:35:00.859Z,17.59
2023-09-08T23:37:28.711Z,17.53
2023-09-08T23:39:56.493Z,17.58
2023-09-08T23:42:24.251Z,17.48
2023-09-08T23:44:52.116Z,17.52
2023-09-08T23:47:19.942Z,17.13
2023-09-08T23:49:47.691Z,17.46
2023-09-08T23:52:16.775Z,17.56
2023-09-08T23:54:44.467Z,17.43
2023-09-08T23:57:12.274Z,17.46
2023-09-08T23:59:40.000Z,17.44
